ソチ の空港の天気 - METARとTAF

ソチ空港 ( URSS / AER ) - ロシア ソチ
飛行場実況気象(Metar)
観測時間05/23 03:30 MSK (05/23 00:30 UTC)
風向・風速東 2m/s
視程10km以上
天気現象
全天の4割程度の雲 雲底高度 400m
全天の8割程度の雲 雲底高度 3050m
気温19℃
湿度88%
気圧1016hPa
METARURSS 230030Z 09002MPS 9999 SCT013 BKN100 19/17 Q1016 R06/090070 R02/090070 TEMPO VRB06G11MPS -TSRA BKN015CB RMK R02/05002MPS MT OBSC QFE761
過去の天気等 Google飛行場航空写真 Wunderground天気予報

過去48時間のMETAR

飛行場予報(TAF)
発表時間: 5/23 01:56 MSK (5/22 22:56 UTC)
予報対象時間: 23日3時 MSK ~ 24日3時 MSK
風向・風速北東 5m/s
視程10km以上
全天の4割程度の積乱雲 雲底高度 910m
全天の8割程度の雲 雲底高度 3,050m
23日3時 MSK ~ 23日9時 MSK に一時的に
風向・風速不定 6m/s 瞬間風速 11m/s
天気現象弱い雷雨
全天の8割程度の雲 雲底高度 340m
全天の8割程度の積乱雲 雲底高度 610m
23日9時 MSK ~ 23日10時 MSK に徐々に
風向・風速西 6m/s 瞬間風速 11m/s
23日9時 MSK ~ 23日12時 MSK に一時的に
風向・風速南西 6m/s
23日20時 MSK ~ 23日21時 MSK に徐々に
風向・風速北東 5m/s
23日20時 MSK ~ 24日3時 MSK に一時的に
風向・風速不定 1m/s
天気現象弱いしゅう雨
全天の8割程度の雲 雲底高度 340m
全天の8割程度の積乱雲 雲底高度 610m
TAF URSS 222256Z 2300/2324 05005MPS 9999 SCT030CB BKN100
TEMPO 2300/2306 VRB06G11MPS -TSRA BKN011 BKN020CB
BECMG 2306/2307 27006G11MPS
TEMPO 2306/2309 23006MPS
BECMG 2317/2318 05005MPS
TEMPO 2317/2324 VRB01MPS -SHRA BKN011 BKN020CB